Main page
METAR-TAF:

METAR-TAF

Airports :

Prince Said Ibrahim International Airport

Moroni, Comoros

latitude: 11-32S, longitude: 043-16E, elevation: 29 m

Current weather observation

The report was made 53 minutes ago, at 08:00 UTC
Wind 5 kt from the West
Temperature 33°C
Humidity 59%
Pressure 1012 hPa
Visibility 10 km or more
Few clouds at a height of 2000 ft

METAR: FMCH 210800Z 26005KT 9999 FEW020 33/24 Q1012 NOSIG

Time: 11:53 (08:53 UTC)

Forecast

The report was made 3 hours and 53 minutes ago, at 05:00 UTC
Forecast valid from 21 at 06 UTC to 22 at 12 UTC
Wind 10 kt from the Northwest
Visibility 10 km or more
Few clouds at a height of 2000 ft
Becoming
from 21 at 16 UTC to 21 at 18 UTC
Wind 4 kt from the East
Becoming
from 22 at 04 UTC to 22 at 06 UTC
Wind 10 kt from the North/Northwest

TAF: FMCH 210500Z 2106/2212 32010KT 9999 FEW020 BECMG 2116/2118 10004KT BECMG 2204/2206 33010KT

Weather observations and forecasts of more than 4000 airports (METAR and TAF reports).

The available stations are represented by yellow and red dots on the map.

Hover mouse over dot to see the name of the station.

Then click to see weather observations and forecasts.

To change the map : click on the green buttons with a black cross to zoom in, on the green button with a dash to zoom out, or on the green arrows for adjacent maps.


METAR-TAF: